Time;durP1;ratioP1;P1;durP2;ratioP2;P2;SDS_P1;SDS_P2;PMS_P1;PMS_P2;Temp;Humidity;BMP_temperature;BMP_pressure;BME280_temperature;BME280_humidity;BME280_pressure;Samples;Min_cycle;Max_cycle;Signal;HPM_P1;HPM_P2
2022/01/13 00:01:30;;;;;;;22.08;15.13;;;;;;;-1.13;65.16;101228.63;5088736;28;20048;-66
2022/01/13 00:04:02;;;;;;;22.48;15.63;;;;;;;-1.17;65.51;101213.81;5088704;28;20044;-67
2022/01/13 00:06:35;;;;;;;22.95;14.90;;;;;;;-1.65;65.20;101188.44;5088628;28;20193;-67
2022/01/13 00:09:08;;;;;;;25.33;16.88;;;;;;;-1.19;65.40;101215.50;5088506;28;20044;-67
2022/01/13 00:11:41;;;;;;;21.67;14.95;;;;;;;-1.46;65.04;101155.06;5088466;28;20048;-67
2022/01/13 00:17:32;;;;;;;22.17;15.02;;;;;;;-1.28;65.61;101212.69;5079265;28;20048;-67
2022/01/13 00:20:28;;;;;;;25.00;16.02;;;;;;;-1.29;65.43;101210.94;5088336;28;20044;-67
2022/01/13 00:25:52;;;;;;;25.17;17.10;;;;;;;-1.39;66.02;101219.38;5088214;28;20094;-67
2022/01/13 00:28:25;;;;;;;21.65;15.32;;;;;;;-1.42;65.89;101224.50;5088400;28;20070;-66
2022/01/13 00:30:58;;;;;;;19.80;14.02;;;;;;;-1.46;66.04;101228.75;5088431;28;20086;-66
2022/01/13 00:33:31;;;;;;;25.77;15.55;;;;;;;-1.45;65.90;101230.53;5087629;28;20086;-67
2022/01/13 00:36:04;;;;;;;24.45;15.30;;;;;;;-3.23;65.79;100911.97;5088014;28;20044;-67
2022/01/13 00:38:36;;;;;;;21.50;15.45;;;;;;;-1.47;66.19;101210.53;5088033;28;20289;-66
2022/01/13 00:41:09;;;;;;;22.13;15.88;;;;;;;-2.10;65.85;101115.47;5088151;28;20041;-66
2022/01/13 00:43:42;;;;;;;22.38;16.67;;;;;;;-1.45;66.11;101214.03;5087902;28;20041;-66
2022/01/13 00:46:21;;;;;;;22.00;13.68;;;;;;;-1.45;65.54;101211.44;5088226;28;20040;-66
2022/01/13 00:48:56;;;;;;;23.40;15.93;;;;;;;-1.47;65.83;101216.59;5087843;28;20351;-66
2022/01/13 00:51:29;;;;;;;19.98;15.20;;;;;;;-1.47;66.10;101220.94;5086974;28;20047;-65
2022/01/13 00:54:04;;;;;;;23.90;14.82;;;;;;;-1.85;65.89;101155.91;5087545;28;20114;-66
2022/01/13 00:56:37;;;;;;;23.73;15.88;;;;;;;-2.74;65.66;100997.06;5087679;28;20052;-65
2022/01/13 00:59:12;;;;;;;23.70;16.52;;;;;;;-1.47;65.97;101242.59;5087658;28;20098;-65
2022/01/13 01:01:46;;;;;;;24.25;17.42;;;;;;;-1.52;66.09;101217.34;5087655;28;20231;-66
2022/01/13 01:04:20;;;;;;;22.92;15.40;;;;;;;-1.52;66.03;101223.41;5087656;28;20044;-66
2022/01/13 01:06:52;;;;;;;23.50;15.10;;;;;;;-1.49;65.99;101227.81;5087604;28;20189;-65
2022/01/13 01:09:37;;;;;;;23.65;15.57;;;;;;;-1.59;65.84;101199.84;5087798;28;20048;-65
2022/01/13 01:12:11;;;;;;;22.20;17.55;;;;;;;-1.47;65.94;101239.13;5087497;28;20041;-65
2022/01/13 01:14:48;;;;;;;21.25;15.43;;;;;;;-1.48;66.05;101234.78;5087414;28;20044;-65
2022/01/13 01:17:21;;;;;;;21.60;14.82;;;;;;;-1.44;65.76;101231.41;5087591;28;20281;-65
2022/01/13 01:19:55;;;;;;;22.70;14.93;;;;;;;-1.45;66.02;101214.03;5087342;28;20041;-65
2022/01/13 01:22:41;;;;;;;24.77;17.65;;;;;;;-1.44;65.73;101226.19;5087531;28;20086;-66
2022/01/13 01:28:00;;;;;;;29.13;18.40;;;;;;;-1.45;65.93;101204.50;5087167;28;20054;-66
2022/01/13 01:30:35;;;;;;;24.65;15.25;;;;;;;-1.43;65.75;101195.03;5087366;28;20040;-65
2022/01/13 01:33:04;;;;;;;26.25;18.60;;;;;;;-1.43;65.74;101195.03;5087349;28;20277;-65
2022/01/13 01:35:37;;;;;;;26.85;17.33;;;;;;;-1.42;65.55;101194.19;5087288;28;20058;-65
2022/01/13 01:38:10;;;;;;;28.58;19.23;;;;;;;-1.44;65.98;101187.19;5087083;28;20087;-65
2022/01/13 01:40:42;;;;;;;27.08;18.38;;;;;;;-1.41;65.66;101184.66;5087180;28;20085;-65
2022/01/13 01:43:14;;;;;;;29.33;17.63;;;;;;;-1.42;65.95;101198.50;5086834;28;20102;-66
2022/01/13 01:45:49;;;;;;;28.23;18.98;;;;;;;-1.59;65.90;101164.31;5086779;28;20098;-65
2022/01/13 01:48:21;;;;;;;26.67;17.83;;;;;;;-1.45;66.19;101188.03;5086750;28;20090;-65
2022/01/13 01:50:58;;;;;;;28.52;18.45;;;;;;;-1.46;66.06;101186.28;5086677;28;20062;-65
2022/01/13 01:53:30;;;;;;;27.60;17.10;;;;;;;-1.46;65.86;101175.88;5086618;28;20049;-65
2022/01/13 01:56:02;;;;;;;28.85;20.67;;;;;;;-1.49;66.11;101175.81;5086608;28;20044;-65
2022/01/13 01:58:36;;;;;;;25.10;16.90;;;;;;;-1.51;66.10;101175.78;5086463;28;20086;-65
2022/01/13 02:01:08;;;;;;;28.10;17.60;;;;;;;-1.52;66.27;101181.81;5086332;28;20044;-65
2022/01/13 02:03:41;;;;;;;26.38;17.55;;;;;;;-1.49;66.17;101186.19;5085895;28;20036;-65
2022/01/13 02:06:15;;;;;;;30.42;19.25;;;;;;;-1.50;65.93;101192.25;5086410;28;20086;-66
2022/01/13 02:08:47;;;;;;;24.02;17.30;;;;;;;-1.49;66.13;101207.88;5086301;28;20350;-65
2022/01/13 02:11:19;;;;;;;27.95;19.10;;;;;;;-1.51;66.13;101193.09;5086537;28;20048;-65
2022/01/13 02:13:54;;;;;;;27.63;19.08;;;;;;;-1.49;65.98;101187.09;5085716;28;20292;-66
2022/01/13 02:16:38;;;;;;;;;;;;;;;-1.52;66.35;101196.53;5086654;28;20052;-66
2022/01/13 02:19:11;;;;;;;25.38;16.55;;;;;;;-1.54;66.14;101193.91;5086090;28;19917;-65
2022/01/13 02:21:45;;;;;;;27.15;16.13;;;;;;;-1.53;66.26;101199.97;5086356;28;20036;-65
2022/01/13 02:24:17;;;;;;;27.27;18.90;;;;;;;-1.51;65.89;101191.38;5085994;28;20090;-66
2022/01/13 02:26:50;;;;;;;31.40;19.05;;;;;;;-1.46;66.06;101199.28;5086264;28;20293;-65
2022/01/13 02:29:22;;;;;;;29.50;18.75;;;;;;;-1.46;66.09;101215.75;5086000;28;20201;-65
2022/01/13 02:31:54;;;;;;;29.38;20.10;;;;;;;-1.44;65.84;101195.88;5085902;28;20087;-65
2022/01/13 02:34:26;;;;;;;30.38;18.98;;;;;;;-1.45;65.96;101204.50;5086093;28;20190;-65
2022/01/13 02:37:01;;;;;;;28.25;17.38;;;;;;;-1.45;66.15;101217.50;5085769;28;20044;-65
2022/01/13 02:39:34;;;;;;;27.50;18.73;;;;;;;-1.46;66.03;101228.75;5085777;28;20036;-65
2022/01/13 02:42:12;;;;;;;28.60;20.33;;;;;;;-1.48;65.91;101224.38;5085956;28;20240;-65
2022/01/13 02:44:50;;;;;;;29.67;19.95;;;;;;;-2.03;66.13;101132.09;5085674;28;20090;-66
2022/01/13 02:47:35;;;;;;;28.67;17.25;;;;;;;-1.45;66.05;101229.63;5085662;28;20062;-65
2022/01/13 02:50:10;;;;;;;28.23;18.45;;;;;;;-1.44;65.96;101227.06;5085742;28;20090;-65
2022/01/13 02:52:44;;;;;;;28.55;18.80;;;;;;;-1.42;66.10;101222.78;5085962;28;20089;-65
2022/01/13 02:55:16;;;;;;;29.83;19.45;;;;;;;-1.44;66.25;101210.59;5085623;28;20044;-65
2022/01/13 02:57:49;;;;;;;29.42;19.05;;;;;;;-1.41;65.99;101210.66;5085805;28;20044;-66
2022/01/13 03:00:21;;;;;;;27.35;17.20;;;;;;;-1.40;66.03;101222.81;5085544;28;20093;-65
2022/01/13 03:02:53;;;;;;;28.85;18.67;;;;;;;-1.39;65.99;101214.19;5085808;28;20089;-66
2022/01/13 03:05:25;;;;;;;32.97;19.60;;;;;;;-1.40;66.16;101225.44;5085476;28;20095;-66
2022/01/13 03:07:59;;;;;;;27.20;17.33;;;;;;;-1.42;66.12;101228.00;5085501;28;20053;-65
2022/01/13 03:10:31;;;;;;;29.08;19.20;;;;;;;-1.40;66.22;101228.03;5085438;28;20044;-65
2022/01/13 03:13:05;;;;;;;26.30;18.42;;;;;;;-1.38;65.98;101248.03;5085293;28;20190;-65
2022/01/13 03:15:34;;;;;;;28.50;18.35;;;;;;;-1.37;66.22;101254.09;5085410;28;20051;-66
2022/01/13 03:18:04;;;;;;;24.27;17.52;;;;;;;-1.35;66.01;101200.41;5085306;28;20100;-65
2022/01/13 03:20:34;;;;;;;24.20;18.95;;;;;;;-1.34;65.74;101189.16;5085658;28;20041;-65
2022/01/13 03:23:06;;;;;;;28.90;19.98;;;;;;;-1.33;65.78;101189.19;5085555;28;20307;-65
2022/01/13 03:25:35;;;;;;;24.85;18.27;;;;;;;-1.30;65.96;101190.09;5085324;28;20083;-65
2022/01/13 03:28:08;;;;;;;31.70;19.23;;;;;;;-1.30;65.78;101185.78;5085575;28;20044;-65
2022/01/13 03:30:35;;;;;;;27.85;17.73;;;;;;;-1.28;65.55;101183.19;5085236;28;20063;-65
2022/01/13 03:33:06;;;;;;;24.27;16.05;;;;;;;-1.30;65.88;101174.47;5085511;28;20316;-66
2022/01/13 03:35:37;;;;;;;26.98;18.08;;;;;;;-1.30;65.66;101183.16;5085454;28;20107;-66
2022/01/13 03:38:07;;;;;;;27.00;18.02;;;;;;;-1.30;65.79;101159.75;5085094;28;20040;-65
2022/01/13 03:40:37;;;;;;;26.48;17.58;;;;;;;-1.63;65.80;101100.09;5085166;28;20043;-65
2022/01/13 03:43:07;;;;;;;25.67;17.75;;;;;;;-1.28;65.87;101180.59;5085087;28;20039;-65
2022/01/13 03:45:37;;;;;;;26.48;17.75;;;;;;;-1.29;65.78;101194.44;5084357;28;20041;-66
2022/01/13 03:48:07;;;;;;;21.95;16.08;;;;;;;-2.20;65.64;101042.50;5085368;28;20044;-66
2022/01/13 03:50:37;;;;;;;29.42;19.02;;;;;;;-1.56;65.72;101163.50;5085079;28;20112;-65
2022/01/13 03:53:43;;;;;;;28.17;17.98;;;;;;;-1.28;66.13;101202.28;5085047;28;20146;-65
2022/01/13 03:57:09;;;;;;;27.98;18.00;;;;;;;-1.24;65.91;101211.91;5084972;28;20041;-66
2022/01/13 04:00:08;;;;;;;28.48;16.67;;;;;;;-1.27;66.26;101208.38;5023902;28;20053;-65
2022/01/13 04:02:41;;;;;;;20.67;15.40;;;;;;;-1.26;65.94;101217.94;5023863;28;20306;-65
2022/01/13 04:05:13;;;;;;;27.65;18.83;;;;;;;-1.49;65.70;101168.00;5068544;28;20056;-66
2022/01/13 04:07:45;;;;;;;27.70;17.55;;;;;;;-1.19;65.53;101215.50;5084951;28;20041;-65
2022/01/13 04:10:58;;;;;;;23.05;15.48;;;;;;;-1.17;65.89;101215.53;5085142;28;20040;-65
2022/01/13 04:13:46;;;;;;;23.30;16.73;;;;;;;-1.15;65.45;101224.25;5085152;28;20040;-65
2022/01/13 04:16:22;;;;;;;22.45;15.50;;;;;;;-1.12;65.66;101227.81;5084835;28;20041;-65
2022/01/13 04:18:58;;;;;;;26.77;18.08;;;;;;;-1.11;65.44;101218.28;5084643;28;20044;-65
2022/01/13 04:21:30;;;;;;;25.50;18.00;;;;;;;-1.12;65.64;101201.78;5085000;28;20040;-65
2022/01/13 04:24:04;;;;;;;25.35;17.13;;;;;;;-1.13;65.58;101189.63;5084765;28;20040;-66
2022/01/13 04:26:36;;;;;;;24.38;16.55;;;;;;;-1.12;65.45;101220.00;5086310;28;20040;-66
2022/01/13 04:29:20;;;;;;;23.10;17.00;;;;;;;-1.39;65.53;101159.56;5088310;28;20048;-65
2022/01/13 04:31:53;;;;;;;26.75;18.13;;;;;;;-1.12;65.42;101213.91;5088122;28;20045;-65
2022/01/13 04:34:26;;;;;;;25.45;15.70;;;;;;;-1.10;65.49;101235.63;5088161;28;20083;-66
2022/01/13 04:36:59;;;;;;;24.13;18.08;;;;;;;-1.10;65.22;101231.31;5088117;28;20044;-65
2022/01/13 04:39:32;;;;;;;24.75;15.98;;;;;;;-1.08;65.27;101229.63;5087236;28;20040;-66
2022/01/13 04:42:07;;;;;;;25.25;18.02;;;;;;;-1.10;65.26;101233.91;5087231;28;20247;-65
2022/01/13 04:44:39;;;;;;;;;;;;;;;-1.15;65.49;101242.47;5088481;28;20044;-65
2022/01/13 04:47:12;;;;;;;20.67;13.48;;;;;;;-1.17;65.60;101238.94;5087913;28;19966;-65
2022/01/13 04:49:45;;;;;;;28.13;17.25;;;;;;;-1.14;65.31;101242.50;5087921;28;20292;-66
2022/01/13 04:52:17;;;;;;;25.13;16.90;;;;;;;-1.12;65.26;101250.34;5087919;28;20040;-65
2022/01/13 04:54:49;;;;;;;26.08;15.85;;;;;;;-1.08;65.08;101267.78;5087588;28;20056;-66
2022/01/13 04:57:22;;;;;;;24.02;17.15;;;;;;;-1.08;65.00;101271.25;5088049;28;20102;-66
2022/01/13 04:59:54;;;;;;;24.02;15.93;;;;;;;-1.07;65.06;101286.03;5087585;28;20228;-65
2022/01/13 05:02:27;;;;;;;21.35;14.50;;;;;;;-1.08;65.11;101271.25;5087981;28;20342;-66
2022/01/13 05:04:59;;;;;;;24.65;18.52;;;;;;;-1.06;65.01;101282.56;5087907;28;20037;-65
2022/01/13 05:07:33;;;;;;;26.30;18.20;;;;;;;-1.03;64.93;101280.03;5087565;28;20296;-66
2022/01/13 05:10:06;;;;;;;23.88;16.52;;;;;;;-1.02;64.93;101280.94;5087537;28;20045;-66
2022/01/13 05:12:42;;;;;;;25.35;16.20;;;;;;;-1.04;65.08;101280.00;5087507;28;20094;-65
2022/01/13 05:15:20;;;;;;;22.85;16.33;;;;;;;-1.04;64.96;101280.00;5087685;28;20063;-65
2022/01/13 05:20:58;;;;;;;27.58;17.33;;;;;;;-1.85;64.91;101140.31;5086985;28;20297;-66
2022/01/13 05:23:31;;;;;;;;;;;;;;;-1.06;65.02;101272.16;5087596;28;20190;-66
2022/01/13 05:26:03;;;;;;;23.70;17.60;;;;;;;-1.05;64.87;101273.03;5087195;28;19916;-65
2022/01/13 05:28:35;;;;;;;24.15;15.13;;;;;;;-1.05;64.58;101271.31;5087086;28;20178;-65
2022/01/13 05:31:07;;;;;;;23.55;16.00;;;;;;;-1.03;64.82;101261.81;5087368;28;20044;-66
2022/01/13 05:33:41;;;;;;;24.00;16.77;;;;;;;-1.06;64.85;101266.97;5087368;28;20288;-66
2022/01/13 05:36:13;;;;;;;23.38;15.30;;;;;;;-1.05;64.67;101262.63;5085970;28;20045;-66
2022/01/13 05:38:46;;;;;;;28.70;18.23;;;;;;;-1.06;64.61;101253.06;5086804;28;20243;-66
2022/01/13 05:41:18;;;;;;;26.85;17.50;;;;;;;-1.04;64.60;101254.88;5087443;28;20086;-65
2022/01/13 05:43:50;;;;;;;25.42;16.85;;;;;;;-1.04;64.54;101256.59;5087067;28;20078;-65
2022/01/13 05:46:22;;;;;;;26.35;16.52;;;;;;;-1.06;64.70;101272.16;5087006;28;20343;-66
2022/01/13 05:48:56;;;;;;;25.33;16.48;;;;;;;-1.05;64.69;101270.44;5086701;28;20086;-66
2022/01/13 05:51:29;;;;;;;27.65;17.85;;;;;;;-1.06;64.57;101264.38;5086599;28;20040;-65
2022/01/13 05:54:01;;;;;;;26.75;16.95;;;;;;;-1.26;64.59;101226.63;5086326;28;20049;-65
2022/01/13 05:56:33;;;;;;;26.83;17.75;;;;;;;-1.05;64.58;101255.72;5086775;28;20040;-66
2022/01/13 05:59:05;;;;;;;24.65;17.00;;;;;;;-1.08;64.67;101245.22;5086669;28;20059;-65
2022/01/13 06:01:38;;;;;;;31.90;19.90;;;;;;;-1.05;64.85;101245.31;5086435;28;20044;-65
2022/01/13 06:04:11;;;;;;;30.67;17.90;;;;;;;-1.08;64.92;101245.22;5086571;28;20044;-66
2022/01/13 06:06:43;;;;;;;27.75;18.88;;;;;;;-1.06;64.83;101255.69;5086688;28;20041;-65
2022/01/13 06:09:16;;;;;;;27.85;17.80;;;;;;;-1.09;64.81;101256.50;5086574;28;20052;-66
2022/01/13 06:11:56;;;;;;;27.85;17.88;;;;;;;-1.11;64.79;101246.88;5086496;28;20044;-66
2022/01/13 06:14:29;;;;;;;29.67;20.33;;;;;;;-1.14;65.09;101263.31;5086136;28;20185;-66
2022/01/13 06:17:01;;;;;;;27.42;17.50;;;;;;;-1.10;64.81;101270.34;5086068;28;20041;-66
2022/01/13 06:19:35;;;;;;;28.45;17.67;;;;;;;-1.08;64.86;101265.19;5086335;28;20044;-66
2022/01/13 06:22:07;;;;;;;26.73;17.25;;;;;;;-1.07;64.92;101259.13;5086308;28;20277;-66
2022/01/13 06:24:40;;;;;;;31.15;18.38;;;;;;;-1.07;65.01;101262.59;5085945;28;20044;-66
2022/01/13 06:27:12;;;;;;;28.23;18.13;;;;;;;-1.05;64.83;101258.31;5086028;28;20063;-66
2022/01/13 06:29:44;;;;;;;29.05;19.63;;;;;;;-1.22;64.76;101211.94;5085854;28;20044;-66
2022/01/13 06:32:16;;;;;;;27.15;16.48;;;;;;;-1.02;64.73;101254.91;5085695;28;20082;-66
2022/01/13 06:34:50;;;;;;;32.08;17.80;;;;;;;-1.01;64.74;101264.47;5085713;28;20069;-66
2022/01/13 06:37:23;;;;;;;27.33;18.65;;;;;;;-1.02;64.77;101265.31;5085636;28;20090;-66
2022/01/13 06:39:55;;;;;;;28.67;18.10;;;;;;;-0.99;64.82;101270.63;5085585;28;20098;-66
2022/01/13 06:42:27;;;;;;;28.83;18.58;;;;;;;-1.01;64.91;101267.06;5085759;28;20044;-66
2022/01/13 06:44:59;;;;;;;28.63;17.73;;;;;;;-1.01;64.80;101267.06;5085647;28;20040;-65
2022/01/13 06:47:32;;;;;;;28.45;20.15;;;;;;;-1.97;64.89;101090.66;5085709;28;20040;-66
2022/01/13 06:50:06;;;;;;;28.67;18.50;;;;;;;-0.96;64.75;101259.41;5085148;28;20044;-66
2022/01/13 06:52:38;;;;;;;29.50;19.45;;;;;;;-0.96;64.94;101268.09;5085549;28;20044;-66
2022/01/13 06:55:11;;;;;;;26.00;18.17;;;;;;;-0.96;64.84;101268.09;5085334;28;20052;-66
2022/01/13 06:57:43;;;;;;;26.80;16.65;;;;;;;-0.94;65.06;101275.91;5085729;28;20048;-66
2022/01/13 07:00:16;;;;;;;33.38;20.38;;;;;;;-0.92;65.00;101276.84;5085510;28;20048;-66
2022/01/13 07:02:48;;;;;;;27.85;18.70;;;;;;;-0.94;65.15;101270.72;5085303;28;20054;-66
2022/01/13 07:05:23;;;;;;;30.90;18.48;;;;;;;-0.92;64.88;101275.13;5085513;28;20074;-66
2022/01/13 07:07:55;;;;;;;31.43;19.20;;;;;;;-0.92;65.09;101284.66;5085311;28;20090;-66
2022/01/13 07:10:27;;;;;;;28.27;16.33;;;;;;;-0.93;65.05;101290.69;5085384;28;20193;-66
2022/01/13 07:12:59;;;;;;;32.85;17.98;;;;;;;-0.90;65.01;101299.44;5085267;28;20292;-66
2022/01/13 07:15:32;;;;;;;36.30;22.13;;;;;;;-0.89;64.90;101301.22;5085341;28;20044;-66
2022/01/13 07:18:04;;;;;;;29.80;19.75;;;;;;;-0.92;65.17;101310.69;5085619;28;20347;-66
2022/01/13 07:20:40;;;;;;;28.77;18.73;;;;;;;-0.92;65.19;101300.25;5085186;28;20045;-66
2022/01/13 07:23:12;;;;;;;30.50;19.83;;;;;;;-0.92;64.99;101306.34;5085547;28;20044;-66
2022/01/13 07:25:44;;;;;;;29.38;19.38;;;;;;;-0.95;65.10;101300.19;5085279;28;20086;-66
2022/01/13 07:28:16;;;;;;;27.45;17.67;;;;;;;-0.94;65.12;101297.63;5085464;28;20285;-66
2022/01/13 07:30:48;;;;;;;31.58;18.20;;;;;;;-0.94;65.13;101296.75;5085181;28;20434;-66
2022/01/13 07:33:21;;;;;;;32.15;19.23;;;;;;;-0.94;64.96;101296.75;5085443;28;20285;-66
2022/01/13 07:35:55;;;;;;;32.78;19.60;;;;;;;-0.96;65.17;101301.03;5084371;28;20090;-66
2022/01/13 07:38:23;;;;;;;30.50;19.95;;;;;;;-0.93;64.92;101298.50;5085314;28;20064;-66
2022/01/13 07:40:53;;;;;;;31.95;20.80;;;;;;;-1.25;65.24;101249.19;5084919;28;20044;-66
2022/01/13 07:43:25;;;;;;;32.33;20.27;;;;;;;-0.95;64.84;101306.28;5085115;28;20059;-66
2022/01/13 07:45:54;;;;;;;31.20;19.55;;;;;;;-0.96;64.85;101307.13;5085077;28;20040;-66
2022/01/13 07:48:24;;;;;;;28.92;20.15;;;;;;;-0.94;64.87;101314.97;5085363;28;20064;-66
2022/01/13 07:50:56;;;;;;;32.40;20.02;;;;;;;-1.32;64.81;101244.69;5085045;28;20056;-66
2022/01/13 07:53:25;;;;;;;29.77;19.45;;;;;;;-0.95;64.90;101303.69;5084700;28;20056;-66
2022/01/13 07:55:55;;;;;;;24.38;18.17;;;;;;;-0.92;64.84;101303.75;5084677;28;20040;-66
2022/01/13 07:58:25;;;;;;;29.40;18.92;;;;;;;-0.92;64.89;101300.25;5085169;28;20028;-66
2022/01/13 08:00:55;;;;;;;27.40;17.63;;;;;;;-0.89;64.71;101310.75;5088063;28;20289;-66
2022/01/13 08:03:25;;;;;;;30.83;19.33;;;;;;;-0.85;64.49;101292.63;5088537;28;20200;-65
2022/01/13 08:05:58;;;;;;;32.35;18.10;;;;;;;-0.82;64.58;101287.47;5088751;28;20040;-66
2022/01/13 08:08:26;;;;;;;29.70;18.83;;;;;;;-0.79;64.53;101290.16;5088642;28;20056;-66
2022/01/13 08:10:56;;;;;;;27.55;17.70;;;;;;;-0.71;64.39;101288.59;5088815;28;20044;-66
2022/01/13 08:13:27;;;;;;;28.25;18.38;;;;;;;-0.65;64.36;101282.63;5088715;28;20202;-66
2022/01/13 08:15:58;;;;;;;29.20;18.30;;;;;;;-0.59;64.11;101285.34;5088719;28;20060;-66
2022/01/13 08:21:18;;;;;;;29.20;18.10;;;;;;;-0.82;63.90;101218.91;5088029;28;20094;-66
2022/01/13 08:23:51;;;;;;;29.20;19.45;;;;;;;-0.58;63.72;101271.50;5088537;28;20040;-66
2022/01/13 08:26:23;;;;;;;32.70;20.83;;;;;;;-0.43;63.44;101243.16;5088232;28;20041;-65
2022/01/13 08:28:55;;;;;;;28.13;18.23;;;;;;;-0.20;63.36;101274.84;5088544;28;20098;-66
2022/01/13 08:31:28;;;;;;;30.17;19.15;;;;;;;-0.09;63.10;101275.94;5088195;28;20040;-66
2022/01/13 08:34:00;;;;;;;28.95;17.30;;;;;;;0.04;62.77;101279.63;5088351;28;20242;-66
2022/01/13 08:36:33;;;;;;;27.77;16.23;;;;;;;0.13;62.45;101265.88;5088316;28;20040;-66
2022/01/13 08:39:06;;;;;;;26.98;15.73;;;;;;;0.22;62.12;101263.44;5087914;28;20090;-66
2022/01/13 08:41:39;;;;;;;23.88;16.58;;;;;;;0.35;61.73;101262.78;5088262;28;20090;-66
2022/01/13 08:44:11;;;;;;;23.70;15.32;;;;;;;0.43;61.89;101266.41;5087950;28;20086;-66
2022/01/13 08:46:43;;;;;;;23.00;16.38;;;;;;;0.26;61.21;101227.00;5087903;28;20044;-66
2022/01/13 08:49:16;;;;;;;25.33;16.55;;;;;;;0.69;61.00;101276.38;5087923;28;20090;-66
2022/01/13 08:51:51;;;;;;;28.02;18.73;;;;;;;0.83;60.85;101267.91;5088022;28;20048;-66
2022/01/13 08:54:23;;;;;;;24.90;15.68;;;;;;;0.99;60.23;101261.16;5087667;28;20103;-66
2022/01/13 08:56:57;;;;;;;24.10;15.65;;;;;;;1.22;59.55;101274.53;5087677;28;20086;-66
2022/01/13 08:59:29;;;;;;;23.27;14.80;;;;;;;1.43;59.32;101264.34;5086745;28;20040;-66
2022/01/13 09:02:02;;;;;;;22.13;14.85;;;;;;;1.60;58.97;101277.66;5087651;28;20045;-66
2022/01/13 09:04:34;;;;;;;22.33;14.80;;;;;;;1.78;58.21;101272.63;5087421;28;20346;-66
2022/01/13 09:07:08;;;;;;;22.48;15.38;;;;;;;1.94;57.88;101284.13;5087420;28;20296;-66
2022/01/13 09:09:40;;;;;;;21.55;13.85;;;;;;;2.08;57.34;101287.78;5087606;28;20044;-66
2022/01/13 09:12:12;;;;;;;20.17;13.70;;;;;;;2.15;57.11;101273.00;5086411;28;20041;-66
2022/01/13 09:14:44;;;;;;;21.42;13.45;;;;;;;2.19;56.98;101273.06;5086749;28;20350;-66
2022/01/13 09:17:22;;;;;;;19.30;13.38;;;;;;;2.30;57.42;101259.19;5087262;28;20044;-66
2022/01/13 09:19:54;;;;;;;22.25;14.13;;;;;;;2.48;56.80;101246.25;5087155;28;20044;-66
2022/01/13 09:22:28;;;;;;;22.35;13.77;;;;;;;2.52;56.17;101254.16;5087304;28;20232;-66
2022/01/13 09:25:00;;;;;;;22.92;13.82;;;;;;;2.63;55.19;101245.50;5087249;28;20285;-67
2022/01/13 09:27:32;;;;;;;20.23;14.10;;;;;;;2.66;55.43;101243.78;5086567;28;20040;-67
2022/01/13 09:30:06;;;;;;;19.98;13.88;;;;;;;2.76;55.82;101216.78;5087008;28;20041;-67
2022/01/13 09:32:38;;;;;;;17.73;13.77;;;;;;;2.80;55.21;101228.16;5086789;28;20102;-66
2022/01/13 09:35:11;;;;;;;21.40;13.35;;;;;;;2.88;54.78;101214.25;5086870;28;20042;-66
2022/01/13 09:37:45;;;;;;;17.42;11.43;;;;;;;2.97;54.24;101209.91;5086867;28;20044;-67
2022/01/13 09:40:17;;;;;;;18.90;12.45;;;;;;;3.08;54.41;101230.06;5087038;28;20041;-67
2022/01/13 09:42:50;;;;;;;18.75;12.23;;;;;;;3.23;54.14;101213.53;5086752;28;20036;-66
2022/01/13 09:45:23;;;;;;;25.90;13.05;;;;;;;3.27;53.52;101196.09;5086609;28;20142;-66
2022/01/13 09:47:55;;;;;;;16.60;11.05;;;;;;;3.28;53.24;101193.47;5086643;28;20356;-67
2022/01/13 09:50:28;;;;;;;17.30;12.05;;;;;;;3.07;53.03;101161.94;5086633;28;20044;-67
2022/01/13 09:53:01;;;;;;;18.55;12.82;;;;;;;3.29;53.14;101182.13;5086271;28;20186;-67
2022/01/13 09:55:34;;;;;;;17.35;13.25;;;;;;;3.05;52.33;101167.19;5086343;28;20041;-66
2022/01/13 09:58:10;;;;;;;18.42;11.93;;;;;;;3.25;53.20;101177.75;5086643;28;20041;-67
2022/01/13 10:00:45;;;;;;;17.08;10.15;;;;;;;3.31;53.30;101175.13;5085746;28;20040;-67
2022/01/13 10:03:22;;;;;;;16.10;11.55;;;;;;;2.58;52.32;101053.50;5086285;28;20086;-67
2022/01/13 10:05:56;;;;;;;15.77;10.88;;;;;;;3.19;52.11;101196.94;5086423;28;20044;-66
2022/01/13 10:08:45;;;;;;;17.10;12.52;;;;;;;3.07;51.82;101160.19;5085532;28;20098;-67
2022/01/13 10:11:35;;;;;;;17.08;11.60;;;;;;;3.04;52.08;101154.94;5086402;28;20044;-66
2022/01/13 10:14:13;;;;;;;17.70;10.40;;;;;;;3.05;54.39;101172.41;5085827;28;20036;-66
2022/01/13 10:16:47;;;;;;;14.20;10.23;;;;;;;2.94;53.37;101136.56;5085821;28;20062;-67
2022/01/13 10:19:32;;;;;;;16.55;10.73;;;;;;;3.22;51.57;101172.50;5086214;28;20049;-66
2022/01/13 10:22:07;;;;;;;15.63;10.68;;;;;;;3.34;53.98;101203.09;5086151;28;20338;-67
2022/01/13 10:24:43;;;;;;;16.15;10.95;;;;;;;3.52;52.18;101180.44;5085395;28;20307;-67
2022/01/13 10:27:18;;;;;;;15.05;11.13;;;;;;;3.68;52.02;101183.09;5085804;28;20032;-67
2022/01/13 10:29:53;;;;;;;14.07;9.85;;;;;;;3.64;51.67;101189.22;5085645;28;20044;-67
2022/01/13 10:32:26;;;;;;;14.63;11.40;;;;;;;3.65;52.05;101180.47;5086003;28;20044;-66
2022/01/13 10:35:01;;;;;;;12.45;9.25;;;;;;;3.70;50.78;101165.63;5085773;28;20090;-67
2022/01/13 10:37:35;;;;;;;15.65;10.52;;;;;;;3.75;52.49;101156.88;5085625;28;20040;-67
2022/01/13 10:40:12;;;;;;;17.85;10.93;;;;;;;3.76;51.00;101158.63;5085944;28;20090;-67
2022/01/13 10:45:40;;;;;;;12.80;8.95;;;;;;;3.76;51.12;101148.16;5085531;28;20044;-66
2022/01/13 10:48:15;;;;;;;16.48;11.68;;;;;;;3.74;51.47;101159.50;5085850;28;20102;-66
2022/01/13 10:50:50;;;;;;;14.57;9.82;;;;;;;3.73;51.32;101152.50;5085793;28;20044;-67
2022/01/13 10:53:25;;;;;;;14.80;10.05;;;;;;;3.62;51.30;101154.25;5085318;28;20182;-67
2022/01/13 10:56:01;;;;;;;13.45;9.52;;;;;;;3.66;51.05;101150.75;5085532;28;20044;-66
2022/01/13 10:58:35;;;;;;;13.13;9.40;;;;;;;2.74;51.20;101022.16;5085430;28;20040;-67
2022/01/13 11:01:10;;;;;;;13.32;9.57;;;;;;;2.73;52.14;101064.03;5085352;28;20098;-66
2022/01/13 11:03:40;;;;;;;13.48;9.57;;;;;;;3.39;52.58;101155.06;5085539;28;20090;-67
2022/01/13 11:06:10;;;;;;;13.18;9.20;;;;;;;3.33;53.24;101155.06;5085366;28;20082;-67
2022/01/13 11:08:41;;;;;;;12.90;8.23;;;;;;;3.26;51.76;101170.75;5085426;28;20285;-67
2022/01/13 11:11:17;;;;;;;13.75;8.88;;;;;;;3.16;51.52;101155.00;5085159;28;20060;-67
2022/01/13 11:13:52;;;;;;;12.45;7.55;;;;;;;3.17;53.15;101158.50;5085274;28;20094;-67
2022/01/13 11:16:26;;;;;;;11.98;8.18;;;;;;;3.25;53.92;101163.75;5085262;28;20292;-67
2022/01/13 11:18:59;;;;;;;13.32;9.57;;;;;;;2.88;53.94;101116.47;5085463;28;20087;-67
2022/01/13 11:21:31;;;;;;;14.02;9.02;;;;;;;3.10;53.45;101122.66;5085134;28;20094;-67
2022/01/13 11:24:05;;;;;;;12.32;8.05;;;;;;;3.33;53.14;101159.41;5084319;28;20044;-67
2022/01/13 11:26:40;;;;;;;12.45;8.38;;;;;;;3.31;52.39;101153.28;5084004;28;20342;-66
2022/01/13 11:29:13;;;;;;;9.98;6.97;;;;;;;3.38;53.58;101150.69;5084825;28;20044;-66
2022/01/13 11:31:46;;;;;;;12.07;8.13;;;;;;;3.45;53.31;101146.34;5083731;28;20149;-66
2022/01/13 11:34:19;;;;;;;13.52;8.85;;;;;;;3.33;53.84;101104.38;5085070;28;20244;-67
2022/01/13 11:36:52;;;;;;;13.27;7.97;;;;;;;3.65;52.07;101128.91;5088718;28;20301;-67
2022/01/13 11:39:37;;;;;;;14.98;8.73;;;;;;;3.74;50.87;101135.91;5088788;28;20309;-66
2022/01/13 11:42:12;;;;;;;12.90;7.97;;;;;;;3.87;51.68;101124.53;5088771;28;20041;-66
2022/01/13 11:44:45;;;;;;;12.63;7.57;;;;;;;4.13;51.63;101114.03;5087829;28;20094;-67
2022/01/13 11:47:19;;;;;;;12.60;7.50;;;;;;;4.22;51.21;101111.44;5088711;28;20044;-66
2022/01/13 11:50:03;;;;;;;12.15;8.43;;;;;;;4.25;49.99;101110.56;5088764;28;20040;-65
2022/01/13 11:52:44;;;;;;;13.68;8.90;;;;;;;3.47;51.22;101000.44;5088413;28;20045;-65
2022/01/13 11:55:22;;;;;;;21.23;9.15;;;;;;;4.12;50.18;101151.66;5088230;28;20311;-65
2022/01/13 11:58:11;;;;;;;10.90;6.82;;;;;;;4.11;49.76;101127.16;5088469;28;20040;-65
2022/01/13 12:00:45;;;;;;;11.80;7.70;;;;;;;4.10;52.13;101119.28;5088641;28;20040;-65
2022/01/13 12:03:28;;;;;;;7.93;6.22;;;;;;;4.04;50.63;101107.06;5088284;28;20174;-65